sensor_id;sensor_type;location;lat;lon;timestamp;temperature;humidity
47616;DHT22;69146;52.266;7.000;2023-05-10T00:00:13;13.90;99.90
47616;DHT22;69146;52.266;7.000;2023-05-10T00:02:58;13.90;99.90
47616;DHT22;69146;52.266;7.000;2023-05-10T00:05:44;13.90;99.90
47616;DHT22;69146;52.266;7.000;2023-05-10T00:08:28;13.90;99.90
47616;DHT22;69146;52.266;7.000;2023-05-10T00:11:12;13.90;99.90
47616;DHT22;69146;52.266;7.000;2023-05-10T00:13:57;13.90;99.90
47616;DHT22;69146;52.266;7.000;2023-05-10T00:16:41;13.90;99.90
47616;DHT22;69146;52.266;7.000;2023-05-10T00:19:25;13.80;99.90
47616;DHT22;69146;52.266;7.000;2023-05-10T00:22:11;13.80;99.90
47616;DHT22;69146;52.266;7.000;2023-05-10T00:24:55;13.60;99.90
47616;DHT22;69146;52.266;7.000;2023-05-10T00:27:40;13.40;99.90
47616;DHT22;69146;52.266;7.000;2023-05-10T00:30:25;13.30;99.90
47616;DHT22;69146;52.266;7.000;2023-05-10T00:33:09;13.20;99.90
47616;DHT22;69146;52.266;7.000;2023-05-10T00:35:55;13.20;99.90
47616;DHT22;69146;52.266;7.000;2023-05-10T00:38:42;13.20;99.90
47616;DHT22;69146;52.266;7.000;2023-05-10T00:41:27;13.10;99.90
47616;DHT22;69146;52.266;7.000;2023-05-10T00:44:12;13.10;99.90
47616;DHT22;69146;52.266;7.000;2023-05-10T00:46:56;13.10;99.90
47616;DHT22;69146;52.266;7.000;2023-05-10T00:49:41;13.00;99.90
47616;DHT22;69146;52.266;7.000;2023-05-10T00:52:26;12.90;99.90
47616;DHT22;69146;52.266;7.000;2023-05-10T00:55:12;12.90;99.90
47616;DHT22;69146;52.266;7.000;2023-05-10T00:57:56;12.90;99.90
47616;DHT22;69146;52.266;7.000;2023-05-10T01:00:41;12.90;99.90
47616;DHT22;69146;52.266;7.000;2023-05-10T01:03:26;12.80;99.90
47616;DHT22;69146;52.266;7.000;2023-05-10T01:06:10;12.80;99.90
47616;DHT22;69146;52.266;7.000;2023-05-10T01:08:55;12.80;99.90
47616;DHT22;69146;52.266;7.000;2023-05-10T01:11:41;12.80;99.90
47616;DHT22;69146;52.266;7.000;2023-05-10T01:14:28;12.80;99.90
47616;DHT22;69146;52.266;7.000;2023-05-10T01:17:13;12.80;99.90
47616;DHT22;69146;52.266;7.000;2023-05-10T01:19:57;12.80;99.90
47616;DHT22;69146;52.266;7.000;2023-05-10T01:22:59;12.70;99.90
47616;DHT22;69146;52.266;7.000;2023-05-10T01:29:13;12.70;99.90
47616;DHT22;69146;52.266;7.000;2023-05-10T01:32:12;12.70;99.90
47616;DHT22;69146;52.266;7.000;2023-05-10T01:35:02;12.70;99.90
47616;DHT22;69146;52.266;7.000;2023-05-10T01:37:49;12.70;99.90
47616;DHT22;69146;52.266;7.000;2023-05-10T01:40:35;12.70;99.90
47616;DHT22;69146;52.266;7.000;2023-05-10T01:43:22;12.80;99.90
47616;DHT22;69146;52.266;7.000;2023-05-10T01:46:09;12.80;99.90
47616;DHT22;69146;52.266;7.000;2023-05-10T01:48:57;12.80;99.90
47616;DHT22;69146;52.266;7.000;2023-05-10T01:51:48;12.80;99.90
47616;DHT22;69146;52.266;7.000;2023-05-10T01:54:35;12.80;99.90
47616;DHT22;69146;52.266;7.000;2023-05-10T01:57:21;12.80;99.90
47616;DHT22;69146;52.266;7.000;2023-05-10T02:00:07;12.80;99.90
47616;DHT22;69146;52.266;7.000;2023-05-10T02:02:54;12.80;99.90
47616;DHT22;69146;52.266;7.000;2023-05-10T02:05:41;12.80;99.90
47616;DHT22;69146;52.266;7.000;2023-05-10T02:08:26;12.80;99.90
47616;DHT22;69146;52.266;7.000;2023-05-10T02:11:12;12.80;99.90
47616;DHT22;69146;52.266;7.000;2023-05-10T02:13:57;12.70;99.90
47616;DHT22;69146;52.266;7.000;2023-05-10T02:16:42;12.70;99.90
47616;DHT22;69146;52.266;7.000;2023-05-10T02:19:27;12.70;99.90
47616;DHT22;69146;52.266;7.000;2023-05-10T02:22:13;12.70;99.90
47616;DHT22;69146;52.266;7.000;2023-05-10T02:24:59;12.70;99.90
47616;DHT22;69146;52.266;7.000;2023-05-10T02:27:45;12.70;99.90
47616;DHT22;69146;52.266;7.000;2023-05-10T02:30:31;12.70;99.90
47616;DHT22;69146;52.266;7.000;2023-05-10T02:33:16;12.70;99.90
47616;DHT22;69146;52.266;7.000;2023-05-10T02:36:02;12.70;99.90
47616;DHT22;69146;52.266;7.000;2023-05-10T02:38:48;12.70;99.90
47616;DHT22;69146;52.266;7.000;2023-05-10T02:41:34;12.70;99.90
47616;DHT22;69146;52.266;7.000;2023-05-10T02:44:19;12.70;99.90
47616;DHT22;69146;52.266;7.000;2023-05-10T02:47:04;12.70;99.90
47616;DHT22;69146;52.266;7.000;2023-05-10T02:49:49;12.70;99.90
47616;DHT22;69146;52.266;7.000;2023-05-10T02:52:36;12.70;99.90
47616;DHT22;69146;52.266;7.000;2023-05-10T02:55:25;12.60;99.90
47616;DHT22;69146;52.266;7.000;2023-05-10T02:58:10;12.70;99.90
47616;DHT22;69146;52.266;7.000;2023-05-10T03:00:54;12.60;99.90
47616;DHT22;69146;52.266;7.000;2023-05-10T03:03:39;12.60;99.90
47616;DHT22;69146;52.266;7.000;2023-05-10T03:06:23;12.60;99.90
47616;DHT22;69146;52.266;7.000;2023-05-10T03:09:08;12.60;99.90
47616;DHT22;69146;52.266;7.000;2023-05-10T03:11:56;12.60;99.90
47616;DHT22;69146;52.266;7.000;2023-05-10T03:14:47;12.60;99.90
47616;DHT22;69146;52.266;7.000;2023-05-10T03:17:35;12.50;99.90
47616;DHT22;69146;52.266;7.000;2023-05-10T03:20:22;12.60;99.90
47616;DHT22;69146;52.266;7.000;2023-05-10T03:23:11;12.60;99.90
47616;DHT22;69146;52.266;7.000;2023-05-10T03:25:56;12.60;99.90
47616;DHT22;69146;52.266;7.000;2023-05-10T03:28:42;12.50;99.90
47616;DHT22;69146;52.266;7.000;2023-05-10T03:31:27;12.50;99.90
47616;DHT22;69146;52.266;7.000;2023-05-10T03:34:12;12.50;99.90
47616;DHT22;69146;52.266;7.000;2023-05-10T03:36:56;12.50;99.90
47616;DHT22;69146;52.266;7.000;2023-05-10T03:39:41;12.50;99.90
47616;DHT22;69146;52.266;7.000;2023-05-10T03:42:25;12.60;99.90
47616;DHT22;69146;52.266;7.000;2023-05-10T03:45:11;12.60;99.90
47616;DHT22;69146;52.266;7.000;2023-05-10T03:47:56;12.50;99.90
47616;DHT22;69146;52.266;7.000;2023-05-10T03:50:41;12.50;99.90
47616;DHT22;69146;52.266;7.000;2023-05-10T03:53:25;12.50;99.90
47616;DHT22;69146;52.266;7.000;2023-05-10T03:56:10;12.50;99.90
47616;DHT22;69146;52.266;7.000;2023-05-10T03:58:55;12.50;99.90
47616;DHT22;69146;52.266;7.000;2023-05-10T04:01:41;12.50;99.90
47616;DHT22;69146;52.266;7.000;2023-05-10T04:04:25;12.50;99.90
47616;DHT22;69146;52.266;7.000;2023-05-10T04:07:10;12.50;99.90
47616;DHT22;69146;52.266;7.000;2023-05-10T04:09:54;12.50;99.90
47616;DHT22;69146;52.266;7.000;2023-05-10T04:12:39;12.50;99.90
47616;DHT22;69146;52.266;7.000;2023-05-10T04:15:23;12.50;99.90
47616;DHT22;69146;52.266;7.000;2023-05-10T04:18:09;12.50;99.90
47616;DHT22;69146;52.266;7.000;2023-05-10T04:20:54;12.50;99.90
47616;DHT22;69146;52.266;7.000;2023-05-10T04:23:38;12.50;99.90
47616;DHT22;69146;52.266;7.000;2023-05-10T04:26:23;12.60;99.90
47616;DHT22;69146;52.266;7.000;2023-05-10T04:29:09;12.60;99.90
47616;DHT22;69146;52.266;7.000;2023-05-10T04:31:54;12.60;99.90
47616;DHT22;69146;52.266;7.000;2023-05-10T04:34:40;12.60;99.90
47616;DHT22;69146;52.266;7.000;2023-05-10T04:37:25;12.60;99.90
47616;DHT22;69146;52.266;7.000;2023-05-10T04:40:09;12.60;99.90
47616;DHT22;69146;52.266;7.000;2023-05-10T04:42:54;12.70;99.90
47616;DHT22;69146;52.266;7.000;2023-05-10T04:45:38;12.70;99.90
47616;DHT22;69146;52.266;7.000;2023-05-10T04:48:23;12.70;99.90
47616;DHT22;69146;52.266;7.000;2023-05-10T04:51:08;12.70;99.90
47616;DHT22;69146;52.266;7.000;2023-05-10T04:53:53;12.70;99.90
47616;DHT22;69146;52.266;7.000;2023-05-10T04:56:37;12.80;99.90
47616;DHT22;69146;52.266;7.000;2023-05-10T04:59:22;12.80;99.90
47616;DHT22;69146;52.266;7.000;2023-05-10T05:02:06;12.80;99.90
47616;DHT22;69146;52.266;7.000;2023-05-10T05:04:51;12.80;99.90
47616;DHT22;69146;52.266;7.000;2023-05-10T05:07:37;12.80;99.90
47616;DHT22;69146;52.266;7.000;2023-05-10T05:10:22;12.80;99.90
47616;DHT22;69146;52.266;7.000;2023-05-10T05:13:07;12.90;99.90
47616;DHT22;69146;52.266;7.000;2023-05-10T05:15:51;12.90;99.90
47616;DHT22;69146;52.266;7.000;2023-05-10T05:18:36;12.90;99.90
47616;DHT22;69146;52.266;7.000;2023-05-10T05:21:20;12.90;99.90
47616;DHT22;69146;52.266;7.000;2023-05-10T05:24:07;12.80;99.90
47616;DHT22;69146;52.266;7.000;2023-05-10T05:26:52;12.80;99.90
47616;DHT22;69146;52.266;7.000;2023-05-10T05:29:36;12.80;99.90
47616;DHT22;69146;52.266;7.000;2023-05-10T05:32:21;12.90;99.90
47616;DHT22;69146;52.266;7.000;2023-05-10T05:35:06;12.90;99.90
47616;DHT22;69146;52.266;7.000;2023-05-10T05:37:51;12.90;99.90
47616;DHT22;69146;52.266;7.000;2023-05-10T05:40:36;12.90;99.90
47616;DHT22;69146;52.266;7.000;2023-05-10T05:43:21;12.90;99.90
47616;DHT22;69146;52.266;7.000;2023-05-10T05:46:05;12.90;99.90
47616;DHT22;69146;52.266;7.000;2023-05-10T05:48:49;12.90;99.90
47616;DHT22;69146;52.266;7.000;2023-05-10T05:51:37;13.00;99.90
47616;DHT22;69146;52.266;7.000;2023-05-10T05:54:21;13.00;99.90
47616;DHT22;69146;52.266;7.000;2023-05-10T05:57:07;13.00;99.90
47616;DHT22;69146;52.266;7.000;2023-05-10T05:59:52;13.10;99.90
47616;DHT22;69146;52.266;7.000;2023-05-10T06:02:36;13.10;99.90
47616;DHT22;69146;52.266;7.000;2023-05-10T06:05:20;13.20;99.90
47616;DHT22;69146;52.266;7.000;2023-05-10T06:08:05;13.20;99.90
47616;DHT22;69146;52.266;7.000;2023-05-10T06:10:50;13.20;99.90
47616;DHT22;69146;52.266;7.000;2023-05-10T06:13:36;13.20;99.90
47616;DHT22;69146;52.266;7.000;2023-05-10T06:16:20;13.20;99.90
47616;DHT22;69146;52.266;7.000;2023-05-10T06:19:05;13.20;99.90
47616;DHT22;69146;52.266;7.000;2023-05-10T06:21:49;13.20;99.90
47616;DHT22;69146;52.266;7.000;2023-05-10T06:24:34;13.20;99.90
47616;DHT22;69146;52.266;7.000;2023-05-10T06:27:18;13.20;99.90
47616;DHT22;69146;52.266;7.000;2023-05-10T06:30:05;13.20;99.90
47616;DHT22;69146;52.266;7.000;2023-05-10T06:32:50;13.20;99.90
47616;DHT22;69146;52.266;7.000;2023-05-10T06:35:34;13.20;99.90
47616;DHT22;69146;52.266;7.000;2023-05-10T06:38:19;13.20;99.90
47616;DHT22;69146;52.266;7.000;2023-05-10T06:41:03;13.20;99.90
47616;DHT22;69146;52.266;7.000;2023-05-10T06:43:48;13.20;99.90
47616;DHT22;69146;52.266;7.000;2023-05-10T06:46:34;13.30;99.90
47616;DHT22;69146;52.266;7.000;2023-05-10T06:49:18;13.30;99.90
47616;DHT22;69146;52.266;7.000;2023-05-10T06:52:02;13.30;99.90
47616;DHT22;69146;52.266;7.000;2023-05-10T06:54:47;13.20;99.90
47616;DHT22;69146;52.266;7.000;2023-05-10T06:57:31;13.30;99.90
47616;DHT22;69146;52.266;7.000;2023-05-10T07:00:16;13.20;99.90
47616;DHT22;69146;52.266;7.000;2023-05-10T07:03:02;13.20;99.90
47616;DHT22;69146;52.266;7.000;2023-05-10T07:05:46;13.30;99.90
47616;DHT22;69146;52.266;7.000;2023-05-10T07:08:31;13.30;99.90
47616;DHT22;69146;52.266;7.000;2023-05-10T07:11:15;13.30;99.90
47616;DHT22;69146;52.266;7.000;2023-05-10T07:14:00;13.30;99.90
47616;DHT22;69146;52.266;7.000;2023-05-10T07:16:45;13.30;99.90
47616;DHT22;69146;52.266;7.000;2023-05-10T07:19:30;13.30;99.90
47616;DHT22;69146;52.266;7.000;2023-05-10T07:22:16;13.30;99.90
47616;DHT22;69146;52.266;7.000;2023-05-10T07:25:01;13.40;99.90
47616;DHT22;69146;52.266;7.000;2023-05-10T07:27:46;13.40;99.90
47616;DHT22;69146;52.266;7.000;2023-05-10T07:30:32;13.30;99.90
47616;DHT22;69146;52.266;7.000;2023-05-10T07:33:17;13.40;99.90
47616;DHT22;69146;52.266;7.000;2023-05-10T07:36:03;13.60;99.90
47616;DHT22;69146;52.266;7.000;2023-05-10T07:38:47;13.70;99.90
47616;DHT22;69146;52.266;7.000;2023-05-10T07:41:33;13.80;99.90
47616;DHT22;69146;52.266;7.000;2023-05-10T07:44:18;13.80;99.90
47616;DHT22;69146;52.266;7.000;2023-05-10T07:47:04;13.90;99.90
47616;DHT22;69146;52.266;7.000;2023-05-10T07:49:49;14.10;99.90
47616;DHT22;69146;52.266;7.000;2023-05-10T07:52:34;14.10;99.90
47616;DHT22;69146;52.266;7.000;2023-05-10T07:55:19;14.20;99.90
47616;DHT22;69146;52.266;7.000;2023-05-10T07:58:05;14.30;99.90
47616;DHT22;69146;52.266;7.000;2023-05-10T08:00:50;14.40;99.90
47616;DHT22;69146;52.266;7.000;2023-05-10T08:03:35;14.50;99.90
47616;DHT22;69146;52.266;7.000;2023-05-10T08:06:19;14.50;99.90
47616;DHT22;69146;52.266;7.000;2023-05-10T08:09:06;14.60;99.90
47616;DHT22;69146;52.266;7.000;2023-05-10T08:11:50;14.60;99.90
47616;DHT22;69146;52.266;7.000;2023-05-10T08:14:35;14.70;99.90
47616;DHT22;69146;52.266;7.000;2023-05-10T08:17:21;14.70;99.90
47616;DHT22;69146;52.266;7.000;2023-05-10T08:20:05;14.70;99.90
47616;DHT22;69146;52.266;7.000;2023-05-10T08:22:51;14.70;99.90
47616;DHT22;69146;52.266;7.000;2023-05-10T08:25:37;14.70;99.90
47616;DHT22;69146;52.266;7.000;2023-05-10T08:28:22;14.60;99.90
47616;DHT22;69146;52.266;7.000;2023-05-10T08:31:06;14.50;99.90
47616;DHT22;69146;52.266;7.000;2023-05-10T08:33:51;14.30;99.90
47616;DHT22;69146;52.266;7.000;2023-05-10T08:36:36;14.20;99.90
47616;DHT22;69146;52.266;7.000;2023-05-10T08:39:21;14.20;99.90
47616;DHT22;69146;52.266;7.000;2023-05-10T08:42:07;14.20;99.90
47616;DHT22;69146;52.266;7.000;2023-05-10T08:44:52;14.20;99.90
47616;DHT22;69146;52.266;7.000;2023-05-10T08:47:37;14.20;99.90
47616;DHT22;69146;52.266;7.000;2023-05-10T08:50:23;14.10;99.90
47616;DHT22;69146;52.266;7.000;2023-05-10T08:53:09;14.10;99.90
47616;DHT22;69146;52.266;7.000;2023-05-10T08:55:54;14.00;99.90
47616;DHT22;69146;52.266;7.000;2023-05-10T08:58:41;14.10;99.90
47616;DHT22;69146;52.266;7.000;2023-05-10T09:01:25;14.10;99.90
47616;DHT22;69146;52.266;7.000;2023-05-10T09:04:10;14.20;99.90
47616;DHT22;69146;52.266;7.000;2023-05-10T09:06:56;14.30;99.90
47616;DHT22;69146;52.266;7.000;2023-05-10T09:09:40;14.30;99.90
47616;DHT22;69146;52.266;7.000;2023-05-10T09:12:25;14.30;99.90
47616;DHT22;69146;52.266;7.000;2023-05-10T09:15:10;14.30;99.90
47616;DHT22;69146;52.266;7.000;2023-05-10T09:17:55;14.30;99.90
47616;DHT22;69146;52.266;7.000;2023-05-10T09:20:41;14.30;99.90
47616;DHT22;69146;52.266;7.000;2023-05-10T09:23:25;14.40;99.90
47616;DHT22;69146;52.266;7.000;2023-05-10T09:26:16;14.40;99.90
47616;DHT22;69146;52.266;7.000;2023-05-10T09:29:03;14.40;99.90
47616;DHT22;69146;52.266;7.000;2023-05-10T09:31:50;14.50;99.90
47616;DHT22;69146;52.266;7.000;2023-05-10T09:34:40;14.60;99.90
47616;DHT22;69146;52.266;7.000;2023-05-10T09:37:29;14.80;99.90
47616;DHT22;69146;52.266;7.000;2023-05-10T09:40:14;14.90;99.90
47616;DHT22;69146;52.266;7.000;2023-05-10T09:42:59;14.80;99.90
47616;DHT22;69146;52.266;7.000;2023-05-10T09:45:44;14.80;99.90
47616;DHT22;69146;52.266;7.000;2023-05-10T09:48:33;14.70;99.90
47616;DHT22;69146;52.266;7.000;2023-05-10T09:51:18;14.60;99.90
47616;DHT22;69146;52.266;7.000;2023-05-10T09:54:09;14.50;99.90
47616;DHT22;69146;52.266;7.000;2023-05-10T09:56:54;14.50;99.90
47616;DHT22;69146;52.266;7.000;2023-05-10T09:59:42;14.60;99.90
47616;DHT22;69146;52.266;7.000;2023-05-10T10:02:28;14.70;99.90
47616;DHT22;69146;52.266;7.000;2023-05-10T10:05:14;14.90;99.90
47616;DHT22;69146;52.266;7.000;2023-05-10T10:08:03;15.10;99.90
47616;DHT22;69146;52.266;7.000;2023-05-10T10:10:47;15.30;99.90
47616;DHT22;69146;52.266;7.000;2023-05-10T10:13:32;15.40;99.90
47616;DHT22;69146;52.266;7.000;2023-05-10T10:16:16;15.50;99.90
47616;DHT22;69146;52.266;7.000;2023-05-10T10:19:01;15.60;99.90
47616;DHT22;69146;52.266;7.000;2023-05-10T10:21:46;15.60;99.90
47616;DHT22;69146;52.266;7.000;2023-05-10T10:24:31;15.70;99.90
47616;DHT22;69146;52.266;7.000;2023-05-10T10:27:19;15.80;99.90
47616;DHT22;69146;52.266;7.000;2023-05-10T10:30:07;15.80;99.90
47616;DHT22;69146;52.266;7.000;2023-05-10T10:33:01;16.00;99.90
47616;DHT22;69146;52.266;7.000;2023-05-10T10:35:51;16.20;99.90
47616;DHT22;69146;52.266;7.000;2023-05-10T10:38:38;16.40;99.90
47616;DHT22;69146;52.266;7.000;2023-05-10T10:41:49;16.40;99.90
47616;DHT22;69146;52.266;7.000;2023-05-10T10:44:34;16.50;99.90
47616;DHT22;69146;52.266;7.000;2023-05-10T10:47:21;16.60;99.90
47616;DHT22;69146;52.266;7.000;2023-05-10T10:50:09;16.80;99.90
47616;DHT22;69146;52.266;7.000;2023-05-10T10:52:54;17.10;99.90
47616;DHT22;69146;52.266;7.000;2023-05-10T10:56:03;17.40;99.90
47616;DHT22;69146;52.266;7.000;2023-05-10T10:58:49;17.80;99.90
47616;DHT22;69146;52.266;7.000;2023-05-10T11:01:37;17.70;99.90
47616;DHT22;69146;52.266;7.000;2023-05-10T11:04:26;17.70;99.90
47616;DHT22;69146;52.266;7.000;2023-05-10T11:07:15;17.70;99.90
47616;DHT22;69146;52.266;7.000;2023-05-10T11:10:03;17.70;99.90
47616;DHT22;69146;52.266;7.000;2023-05-10T11:12:53;17.90;99.90
47616;DHT22;69146;52.266;7.000;2023-05-10T11:15:39;18.00;99.90
47616;DHT22;69146;52.266;7.000;2023-05-10T11:18:25;17.90;99.90
47616;DHT22;69146;52.266;7.000;2023-05-10T11:21:09;18.00;99.90
47616;DHT22;69146;52.266;7.000;2023-05-10T11:23:55;17.90;99.90
47616;DHT22;69146;52.266;7.000;2023-05-10T11:26:40;17.80;99.90
47616;DHT22;69146;52.266;7.000;2023-05-10T11:29:27;17.80;99.90
47616;DHT22;69146;52.266;7.000;2023-05-10T11:32:11;17.80;99.90
47616;DHT22;69146;52.266;7.000;2023-05-10T11:34:57;17.90;99.90
47616;DHT22;69146;52.266;7.000;2023-05-10T11:37:41;18.10;99.90
47616;DHT22;69146;52.266;7.000;2023-05-10T11:40:27;18.20;99.90
47616;DHT22;69146;52.266;7.000;2023-05-10T11:43:12;18.40;99.90
47616;DHT22;69146;52.266;7.000;2023-05-10T11:45:57;18.40;99.90
47616;DHT22;69146;52.266;7.000;2023-05-10T11:48:42;18.20;99.90
47616;DHT22;69146;52.266;7.000;2023-05-10T11:51:26;18.20;99.90
47616;DHT22;69146;52.266;7.000;2023-05-10T11:54:11;18.30;99.90
47616;DHT22;69146;52.266;7.000;2023-05-10T11:56:55;18.40;99.90
47616;DHT22;69146;52.266;7.000;2023-05-10T11:59:40;18.40;99.90
47616;DHT22;69146;52.266;7.000;2023-05-10T12:02:25;18.30;99.90
47616;DHT22;69146;52.266;7.000;2023-05-10T12:05:10;18.20;99.90
47616;DHT22;69146;52.266;7.000;2023-05-10T12:11:04;18.40;99.90
47616;DHT22;69146;52.266;7.000;2023-05-10T12:13:48;18.50;99.90
47616;DHT22;69146;52.266;7.000;2023-05-10T12:16:33;18.50;99.90
47616;DHT22;69146;52.266;7.000;2023-05-10T12:19:19;18.50;99.90
47616;DHT22;69146;52.266;7.000;2023-05-10T12:22:07;18.40;99.90
47616;DHT22;69146;52.266;7.000;2023-05-10T12:24:51;18.30;99.90
47616;DHT22;69146;52.266;7.000;2023-05-10T12:27:36;18.30;99.90
47616;DHT22;69146;52.266;7.000;2023-05-10T12:30:21;18.30;99.90
47616;DHT22;69146;52.266;7.000;2023-05-10T12:33:10;18.30;99.90
47616;DHT22;69146;52.266;7.000;2023-05-10T12:35:58;18.20;99.90
47616;DHT22;69146;52.266;7.000;2023-05-10T12:38:43;18.10;99.90
47616;DHT22;69146;52.266;7.000;2023-05-10T12:41:28;18.10;99.90
47616;DHT22;69146;52.266;7.000;2023-05-10T12:44:13;18.10;99.90
47616;DHT22;69146;52.266;7.000;2023-05-10T12:46:57;18.50;99.90
47616;DHT22;69146;52.266;7.000;2023-05-10T12:49:42;18.60;99.90
47616;DHT22;69146;52.266;7.000;2023-05-10T12:52:27;18.80;99.90
47616;DHT22;69146;52.266;7.000;2023-05-10T12:55:12;18.80;99.90
47616;DHT22;69146;52.266;7.000;2023-05-10T12:57:57;19.10;99.90
47616;DHT22;69146;52.266;7.000;2023-05-10T13:00:41;19.40;99.90
47616;DHT22;69146;52.266;7.000;2023-05-10T13:03:27;19.40;99.90
47616;DHT22;69146;52.266;7.000;2023-05-10T13:06:13;19.60;99.90
47616;DHT22;69146;52.266;7.000;2023-05-10T13:08:59;20.00;99.90
47616;DHT22;69146;52.266;7.000;2023-05-10T13:11:43;20.00;99.90
47616;DHT22;69146;52.266;7.000;2023-05-10T13:14:29;19.60;99.90
47616;DHT22;69146;52.266;7.000;2023-05-10T13:17:13;19.60;99.90
47616;DHT22;69146;52.266;7.000;2023-05-10T13:19:58;19.60;99.90
47616;DHT22;69146;52.266;7.000;2023-05-10T13:22:42;19.70;99.90
47616;DHT22;69146;52.266;7.000;2023-05-10T13:25:28;19.90;99.90
47616;DHT22;69146;52.266;7.000;2023-05-10T13:28:13;20.00;99.90
47616;DHT22;69146;52.266;7.000;2023-05-10T13:30:57;20.20;99.90
47616;DHT22;69146;52.266;7.000;2023-05-10T13:33:44;20.60;99.90
47616;DHT22;69146;52.266;7.000;2023-05-10T13:36:28;20.80;99.80
47616;DHT22;69146;52.266;7.000;2023-05-10T13:39:12;20.50;99.30
47616;DHT22;69146;52.266;7.000;2023-05-10T13:41:58;20.00;99.90
47616;DHT22;69146;52.266;7.000;2023-05-10T13:44:43;19.60;99.90
47616;DHT22;69146;52.266;7.000;2023-05-10T13:47:27;19.70;99.90
47616;DHT22;69146;52.266;7.000;2023-05-10T13:50:11;20.00;99.90
47616;DHT22;69146;52.266;7.000;2023-05-10T13:52:56;20.30;99.90
47616;DHT22;69146;52.266;7.000;2023-05-10T13:55:40;20.70;99.50
47616;DHT22;69146;52.266;7.000;2023-05-10T13:58:26;20.80;98.20
47616;DHT22;69146;52.266;7.000;2023-05-10T14:01:11;20.60;99.20
47616;DHT22;69146;52.266;7.000;2023-05-10T14:03:56;20.40;99.30
47616;DHT22;69146;52.266;7.000;2023-05-10T14:06:40;20.20;99.80
47616;DHT22;69146;52.266;7.000;2023-05-10T14:09:25;20.00;99.30
47616;DHT22;69146;52.266;7.000;2023-05-10T14:12:10;19.90;99.90
47616;DHT22;69146;52.266;7.000;2023-05-10T14:14:55;19.90;99.90
47616;DHT22;69146;52.266;7.000;2023-05-10T14:17:40;20.20;99.40
47616;DHT22;69146;52.266;7.000;2023-05-10T14:20:25;20.50;98.90
47616;DHT22;69146;52.266;7.000;2023-05-10T14:23:09;20.30;98.00
47616;DHT22;69146;52.266;7.000;2023-05-10T14:25:53;20.20;98.30
47616;DHT22;69146;52.266;7.000;2023-05-10T14:28:37;20.10;98.50
47616;DHT22;69146;52.266;7.000;2023-05-10T14:31:23;20.10;98.30
47616;DHT22;69146;52.266;7.000;2023-05-10T14:34:09;20.00;98.60
47616;DHT22;69146;52.266;7.000;2023-05-10T14:36:54;20.00;98.80
47616;DHT22;69146;52.266;7.000;2023-05-10T14:39:39;19.70;99.30
47616;DHT22;69146;52.266;7.000;2023-05-10T14:42:24;19.50;99.90
47616;DHT22;69146;52.266;7.000;2023-05-10T14:45:09;19.20;99.90
47616;DHT22;69146;52.266;7.000;2023-05-10T14:47:55;18.90;99.90
47616;DHT22;69146;52.266;7.000;2023-05-10T14:50:40;18.80;99.90
47616;DHT22;69146;52.266;7.000;2023-05-10T14:53:24;19.00;99.90
47616;DHT22;69146;52.266;7.000;2023-05-10T14:56:08;19.00;99.90
47616;DHT22;69146;52.266;7.000;2023-05-10T14:58:53;19.10;99.90
47616;DHT22;69146;52.266;7.000;2023-05-10T15:01:38;19.10;99.90
47616;DHT22;69146;52.266;7.000;2023-05-10T15:04:24;19.00;99.90
47616;DHT22;69146;52.266;7.000;2023-05-10T15:07:08;19.00;99.90
47616;DHT22;69146;52.266;7.000;2023-05-10T15:09:53;19.00;99.90
47616;DHT22;69146;52.266;7.000;2023-05-10T15:12:38;19.10;99.90
47616;DHT22;69146;52.266;7.000;2023-05-10T15:15:22;19.10;99.90
47616;DHT22;69146;52.266;7.000;2023-05-10T15:18:07;19.30;99.90
47616;DHT22;69146;52.266;7.000;2023-05-10T15:20:54;19.30;99.90
47616;DHT22;69146;52.266;7.000;2023-05-10T15:23:39;19.10;99.90
47616;DHT22;69146;52.266;7.000;2023-05-10T15:26:23;19.10;99.90
47616;DHT22;69146;52.266;7.000;2023-05-10T15:29:10;18.90;99.90
47616;DHT22;69146;52.266;7.000;2023-05-10T15:31:55;19.00;99.90
47616;DHT22;69146;52.266;7.000;2023-05-10T15:34:40;19.20;99.90
47616;DHT22;69146;52.266;7.000;2023-05-10T15:37:26;19.60;99.90
47616;DHT22;69146;52.266;7.000;2023-05-10T15:40:11;20.00;99.90
47616;DHT22;69146;52.266;7.000;2023-05-10T15:42:56;19.80;99.90
47616;DHT22;69146;52.266;7.000;2023-05-10T15:45:40;20.00;99.70
47616;DHT22;69146;52.266;7.000;2023-05-10T15:48:25;20.60;99.50
47616;DHT22;69146;52.266;7.000;2023-05-10T15:51:09;21.40;98.10
47616;DHT22;69146;52.266;7.000;2023-05-10T15:53:55;21.90;97.40
47616;DHT22;69146;52.266;7.000;2023-05-10T15:56:40;22.60;96.70
47616;DHT22;69146;52.266;7.000;2023-05-10T15:59:25;22.80;95.80
47616;DHT22;69146;52.266;7.000;2023-05-10T16:02:09;23.10;94.90
47616;DHT22;69146;52.266;7.000;2023-05-10T16:04:54;23.10;94.90
47616;DHT22;69146;52.266;7.000;2023-05-10T16:07:38;22.80;94.20
47616;DHT22;69146;52.266;7.000;2023-05-10T16:10:26;22.30;95.30
47616;DHT22;69146;52.266;7.000;2023-05-10T16:13:10;22.20;95.00
47616;DHT22;69146;52.266;7.000;2023-05-10T16:15:54;22.60;95.40
47616;DHT22;69146;52.266;7.000;2023-05-10T16:18:40;23.30;94.20
47616;DHT22;69146;52.266;7.000;2023-05-10T16:21:25;23.90;93.60
47616;DHT22;69146;52.266;7.000;2023-05-10T16:24:10;23.80;92.90
47616;DHT22;69146;52.266;7.000;2023-05-10T16:26:56;24.10;93.00
47616;DHT22;69146;52.266;7.000;2023-05-10T16:29:40;24.00;92.40
47616;DHT22;69146;52.266;7.000;2023-05-10T16:32:25;23.90;93.10
47616;DHT22;69146;52.266;7.000;2023-05-10T16:35:09;23.20;93.50
47616;DHT22;69146;52.266;7.000;2023-05-10T16:37:54;23.00;93.30
47616;DHT22;69146;52.266;7.000;2023-05-10T16:40:38;22.60;93.60
47616;DHT22;69146;52.266;7.000;2023-05-10T16:43:24;22.10;94.10
47616;DHT22;69146;52.266;7.000;2023-05-10T16:46:09;21.60;94.60
47616;DHT22;69146;52.266;7.000;2023-05-10T16:48:54;21.10;95.40
47616;DHT22;69146;52.266;7.000;2023-05-10T16:51:39;20.70;96.30
47616;DHT22;69146;52.266;7.000;2023-05-10T16:54:24;20.40;96.60
47616;DHT22;69146;52.266;7.000;2023-05-10T16:57:09;20.10;96.90
47616;DHT22;69146;52.266;7.000;2023-05-10T16:59:55;19.80;97.40
47616;DHT22;69146;52.266;7.000;2023-05-10T17:02:39;19.60;97.70
47616;DHT22;69146;52.266;7.000;2023-05-10T17:05:24;19.50;98.20
47616;DHT22;69146;52.266;7.000;2023-05-10T17:08:09;19.30;98.20
47616;DHT22;69146;52.266;7.000;2023-05-10T17:10:53;19.20;98.90
47616;DHT22;69146;52.266;7.000;2023-05-10T17:13:39;19.00;98.10
47616;DHT22;69146;52.266;7.000;2023-05-10T17:16:25;18.80;98.50
47616;DHT22;69146;52.266;7.000;2023-05-10T17:19:10;18.70;99.20
47616;DHT22;69146;52.266;7.000;2023-05-10T17:21:54;18.60;99.20
47616;DHT22;69146;52.266;7.000;2023-05-10T17:24:39;18.60;99.40
47616;DHT22;69146;52.266;7.000;2023-05-10T17:27:23;18.50;99.50
47616;DHT22;69146;52.266;7.000;2023-05-10T17:30:08;18.50;99.90